Time;durP1;ratioP1;P1;durP2;ratioP2;P2;SDS_P1;SDS_P2;PMS_P1;PMS_P2;Temp;Humidity;BMP_temperature;BMP_pressure;BME280_temperature;BME280_humidity;BME280_pressure;Samples;Min_cycle;Max_cycle;Signal;HPM_P1;HPM_P2
2022/05/02 00:00:28;;;;;;;7.88;4.50;;;14.60;80.50;;;;;;5035932;28;20096;-78
2022/05/02 00:02:54;;;;;;;6.65;4.57;;;14.60;80.60;;;;;;5035983;28;20026;-77
2022/05/02 00:05:20;;;;;;;7.40;4.18;;;14.60;80.40;;;;;;5026162;28;20044;-78
2022/05/02 00:07:46;;;;;;;6.68;4.38;;;14.60;80.20;;;;;;5034525;28;20021;-78
2022/05/02 00:10:11;;;;;;;6.90;4.30;;;14.60;80.20;;;;;;5034685;28;20461;-77
2022/05/02 00:12:37;;;;;;;6.65;4.47;;;14.60;79.90;;;;;;5035651;28;20082;-77
2022/05/02 00:15:03;;;;;;;8.13;4.22;;;14.60;80.10;;;;;;5034289;28;20502;-77
2022/05/02 00:20:13;;;;;;;6.68;4.20;;;14.60;80.00;;;;;;5035847;28;20080;-78
2022/05/02 00:22:40;;;;;;;7.45;4.85;;;14.60;79.80;;;;;;5034160;28;20041;-78
2022/05/02 00:25:06;;;;;;;6.78;4.60;;;14.60;80.00;;;;;;5034020;28;20029;-76
2022/05/02 00:27:32;;;;;;;6.82;4.45;;;14.50;79.60;;;;;;5035598;28;20069;-77
2022/05/02 00:29:58;;;;;;;6.90;4.55;;;14.50;80.00;;;;;;5034290;28;20068;-78
2022/05/02 00:32:23;;;;;;;6.72;4.68;;;14.50;79.60;;;;;;5034171;28;20022;-78
2022/05/02 00:34:49;;;;;;;6.85;4.43;;;14.50;79.70;;;;;;5035259;28;20033;-78
2022/05/02 00:37:15;;;;;;;7.00;4.57;;;14.50;79.80;;;;;;5034008;28;20399;-77
2022/05/02 00:39:41;;;;;;;6.65;4.50;;;14.50;79.90;;;;;;5033180;28;20026;-78
2022/05/02 00:42:07;;;;;;;7.32;4.72;;;14.50;80.40;;;;;;5033679;28;20376;-78
2022/05/02 00:44:32;;;;;;;6.68;4.50;;;14.50;79.90;;;;;;5033813;28;20017;-77
2022/05/02 00:46:58;;;;;;;7.50;4.75;;;14.50;79.90;;;;;;5035197;28;20649;-78
2022/05/02 00:49:23;;;;;;;7.20;4.70;;;14.40;79.90;;;;;;5017141;28;20552;-77
2022/05/02 00:51:49;;;;;;;6.93;4.57;;;14.50;79.90;;;;;;5034911;28;20049;-77
2022/05/02 00:54:14;;;;;;;6.95;4.63;;;14.40;79.80;;;;;;5017223;28;20065;-78
2022/05/02 00:56:41;;;;;;;7.25;4.72;;;14.50;79.90;;;;;;5016867;28;20022;-77
2022/05/02 00:59:11;;;;;;;6.85;4.82;;;14.40;79.70;;;;;;5017099;28;20040;-77
2022/05/02 01:01:37;;;;;;;7.15;4.80;;;14.40;80.30;;;;;;5017186;28;20025;-79
2022/05/02 01:04:02;;;;;;;7.07;4.40;;;14.40;79.90;;;;;;5034955;28;20029;-77
2022/05/02 01:09:12;;;;;;;7.18;4.80;;;14.40;80.30;;;;;;5035016;28;20033;-77
2022/05/02 01:11:38;;;;;;;8.02;5.38;;;14.50;80.40;;;;;;5033517;28;20026;-77
2022/05/02 01:14:08;;;;;;;7.30;4.15;;;14.50;80.30;;;;;;5034400;28;20087;-77
2022/05/02 01:16:33;;;;;;;6.90;4.70;;;14.50;80.30;;;;;;5034303;28;20032;-78
2022/05/02 01:18:59;;;;;;;6.88;4.22;;;14.50;80.20;;;;;;5034565;28;20022;-77
2022/05/02 01:21:29;;;;;;;7.10;4.70;;;14.60;80.20;;;;;;5023395;28;20021;-77
2022/05/02 01:23:57;;;;;;;6.90;4.47;;;14.60;80.00;;;;;;5030363;28;20052;-77
2022/05/02 01:26:23;;;;;;;9.10;4.80;;;14.60;80.00;;;;;;5033022;28;20056;-77
2022/05/02 01:28:57;;;;;;;6.88;4.55;;;14.60;80.10;;;;;;5034115;28;20033;-77
2022/05/02 01:31:23;;;;;;;6.22;4.53;;;14.60;80.00;;;;;;5034379;28;20395;-78
2022/05/02 01:33:50;;;;;;;7.53;4.82;;;14.50;79.80;;;;;;5021179;28;20033;-78
2022/05/02 01:36:17;;;;;;;7.45;4.85;;;14.50;79.90;;;;;;5033934;28;20100;-78
2022/05/02 01:38:43;;;;;;;7.35;5.00;;;14.50;79.90;;;;;;5016378;28;20390;-77
2022/05/02 01:41:10;;;;;;;7.47;4.90;;;14.50;80.10;;;;;;5016463;28;20025;-77
2022/05/02 01:43:36;;;;;;;7.10;5.03;;;14.40;80.10;;;;;;5034035;28;20025;-78
2022/05/02 01:46:04;;;;;;;7.75;5.05;;;14.50;80.20;;;;;;5033652;28;20018;-77
2022/05/02 01:48:30;;;;;;;7.20;4.53;;;14.50;80.10;;;;;;5033979;28;20026;-78
2022/05/02 01:50:57;;;;;;;6.97;5.05;;;14.40;80.20;;;;;;5033820;28;20028;-78
2022/05/02 01:53:22;;;;;;;7.50;4.90;;;14.40;80.10;;;;;;5033861;28;20049;-77
2022/05/02 01:55:48;;;;;;;7.63;4.80;;;14.40;80.20;;;;;;5023036;28;20060;-79
2022/05/02 01:58:14;;;;;;;7.18;4.88;;;14.40;80.20;;;;;;5032631;28;20129;-77
2022/05/02 02:00:39;;;;;;;7.15;5.20;;;14.40;80.20;;;;;;5032452;28;20017;-77
2022/05/02 02:03:05;;;;;;;6.80;4.90;;;14.40;80.10;;;;;;5033405;28;20044;-77
2022/05/02 02:05:49;;;;;;;7.18;5.07;;;14.40;80.20;;;;;;5027006;28;20480;-78
2022/05/02 02:08:24;;;;;;;7.35;4.85;;;14.40;80.20;;;;;;5033801;28;20021;-77
2022/05/02 02:10:51;;;;;;;6.90;4.70;;;14.40;80.10;;;;;;5033596;28;20105;-77
2022/05/02 02:13:17;;;;;;;7.15;5.10;;;14.40;80.10;;;;;;5033416;28;20467;-78
2022/05/02 02:15:43;;;;;;;7.13;5.20;;;14.40;80.20;;;;;;5033078;28;20040;-79
2022/05/02 02:18:09;;;;;;;7.43;5.22;;;14.40;80.00;;;;;;5032170;28;20075;-77
2022/05/02 02:20:35;;;;;;;7.88;5.40;;;14.40;79.80;;;;;;5032164;28;20629;-77
2022/05/02 02:23:02;;;;;;;7.18;5.38;;;14.40;79.80;;;;;;5032059;28;20033;-77
2022/05/02 02:25:27;;;;;;;7.63;5.25;;;14.40;80.20;;;;;;5031688;28;20029;-77
2022/05/02 02:27:53;;;;;;;7.57;4.93;;;14.40;80.10;;;;;;5031914;28;20024;-77
2022/05/02 02:30:19;;;;;;;7.35;5.00;;;14.40;80.10;;;;;;5015505;28;20044;-76
2022/05/02 02:32:45;;;;;;;7.60;5.22;;;14.40;80.00;;;;;;5017347;28;20475;-76
2022/05/02 02:35:10;;;;;;;7.88;5.28;;;14.50;80.50;;;;;;5032760;28;20056;-78
2022/05/02 02:37:36;;;;;;;7.50;5.03;;;14.50;79.80;;;;;;5015576;28;20116;-77
2022/05/02 02:40:02;;;;;;;6.85;4.40;;;14.50;79.50;;;;;;5018952;28;20025;-77
2022/05/02 02:42:27;;;;;;;6.90;5.22;;;14.50;80.00;;;;;;5031765;28;20026;-77
2022/05/02 02:44:53;;;;;;;7.57;5.28;;;14.50;79.50;;;;;;5031423;28;20026;-77
2022/05/02 02:47:18;;;;;;;7.43;4.95;;;14.50;79.50;;;;;;5031337;28;20017;-77
2022/05/02 02:49:44;;;;;;;6.53;4.80;;;14.50;79.70;;;;;;5032406;28;20030;-77
2022/05/02 02:52:09;;;;;;;7.40;5.00;;;14.50;79.70;;;;;;5032466;28;20056;-77
2022/05/02 02:54:35;;;;;;;7.63;4.90;;;14.50;79.70;;;;;;5032323;28;20106;-76
2022/05/02 02:57:02;;;;;;;7.45;4.80;;;14.40;79.80;;;;;;5014563;28;20033;-77
2022/05/02 02:59:27;;;;;;;7.13;5.00;;;14.40;79.90;;;;;;5013468;28;20057;-78
2022/05/02 03:01:54;;;;;;;6.75;4.93;;;14.40;79.90;;;;;;5032081;28;20059;-77
2022/05/02 03:07:05;;;;;;;7.10;5.10;;;14.40;80.00;;;;;;5022645;28;20105;-77
2022/05/02 03:09:31;;;;;;;7.13;4.78;;;14.40;79.90;;;;;;5032296;28;20045;-77
2022/05/02 03:11:57;;;;;;;7.38;5.45;;;14.40;79.90;;;;;;5030174;28;20033;-77
2022/05/02 03:14:23;;;;;;;7.47;5.68;;;14.40;80.00;;;;;;5032590;28;20030;-77
2022/05/02 03:16:49;;;;;;;6.97;4.90;;;14.40;80.20;;;;;;5014304;28;20029;-77
2022/05/02 03:19:14;;;;;;;7.85;5.32;;;14.40;80.00;;;;;;5028186;28;20059;-77
2022/05/02 03:21:40;;;;;;;8.00;5.35;;;14.40;80.00;;;;;;5030432;28;20034;-76
2022/05/02 03:24:06;;;;;;;7.40;5.07;;;14.40;80.50;;;;;;5026221;28;20477;-77
2022/05/02 03:26:31;;;;;;;7.97;5.30;;;14.30;79.80;;;;;;5029045;28;20025;-77
2022/05/02 03:28:57;;;;;;;8.98;5.47;;;14.30;79.90;;;;;;5031862;28;20041;-77
2022/05/02 03:31:22;;;;;;;7.10;5.03;;;14.30;79.80;;;;;;5032057;28;20040;-78
2022/05/02 03:33:48;;;;;;;7.55;5.45;;;14.30;79.80;;;;;;5031034;28;20468;-77
2022/05/02 03:36:13;;;;;;;8.52;5.40;;;14.40;79.80;;;;;;5031732;28;20482;-77
2022/05/02 03:38:39;;;;;;;7.60;5.45;;;14.30;79.80;;;;;;5014585;28;20032;-77
2022/05/02 03:41:04;;;;;;;7.88;5.55;;;14.30;79.70;;;;;;5023442;28;20491;-77
2022/05/02 03:43:32;;;;;;;7.45;5.53;;;14.40;79.70;;;;;;5031960;28;20039;-77
2022/05/02 03:45:57;;;;;;;7.75;5.10;;;14.40;79.90;;;;;;5031848;28;20071;-77
2022/05/02 03:48:22;;;;;;;7.05;4.93;;;14.30;79.70;;;;;;5016208;28;20034;-77
2022/05/02 03:50:48;;;;;;;7.18;5.38;;;14.40;79.70;;;;;;5024371;28;20087;-77
2022/05/02 03:53:17;;;;;;;8.73;5.78;;;14.40;79.70;;;;;;5031797;28;20497;-77
2022/05/02 03:55:43;;;;;;;7.60;5.68;;;14.50;79.70;;;;;;5030067;28;20025;-77
2022/05/02 03:58:09;;;;;;;7.43;5.25;;;14.40;79.50;;;;;;5031802;28;20029;-77
2022/05/02 04:00:35;;;;;;;7.40;5.18;;;14.50;79.40;;;;;;5031680;28;20033;-77
2022/05/02 04:03:00;;;;;;;8.05;5.22;;;14.50;79.40;;;;;;5031285;28;20022;-77
2022/05/02 04:05:26;;;;;;;7.30;5.38;;;14.50;79.50;;;;;;5031450;28;20033;-77
2022/05/02 04:07:52;;;;;;;7.55;5.30;;;14.50;79.40;;;;;;5031583;28;20032;-77
2022/05/02 04:10:18;;;;;;;7.55;5.25;;;14.50;79.30;;;;;;5014175;28;20057;-77
2022/05/02 04:12:43;;;;;;;6.90;4.97;;;14.40;79.30;;;;;;5032220;28;20053;-77
2022/05/02 04:15:09;;;;;;;7.55;5.25;;;14.40;79.50;;;;;;5025187;28;20116;-77
2022/05/02 04:17:35;;;;;;;7.60;5.30;;;14.40;79.60;;;;;;5032652;28;20502;-77
2022/05/02 04:20:02;;;;;;;7.88;5.25;;;14.40;79.60;;;;;;5035272;28;20087;-77
2022/05/02 04:22:28;;;;;;;6.90;4.95;;;14.40;79.70;;;;;;5017604;28;20132;-77
2022/05/02 04:24:53;;;;;;;7.30;5.22;;;14.40;79.70;;;;;;5034637;28;20117;-77
2022/05/02 04:27:19;;;;;;;8.25;5.63;;;14.40;79.60;;;;;;5017522;28;20132;-77
2022/05/02 04:29:44;;;;;;;7.90;5.63;;;14.30;79.70;;;;;;5035049;28;20099;-77
2022/05/02 04:32:10;;;;;;;7.32;5.35;;;14.30;79.80;;;;;;5017501;28;20026;-77
2022/05/02 04:34:35;;;;;;;7.70;5.82;;;14.30;79.70;;;;;;5034875;28;20026;-78
2022/05/02 04:37:01;;;;;;;8.43;5.72;;;14.30;79.70;;;;;;5034195;28;20068;-77
2022/05/02 04:39:26;;;;;;;8.18;5.53;;;14.30;79.60;;;;;;5015565;28;20835;-77
2022/05/02 04:41:52;;;;;;;7.13;5.18;;;14.30;79.60;;;;;;5029585;28;20030;-76
2022/05/02 04:44:17;;;;;;;8.02;5.85;;;14.40;79.60;;;;;;5013700;28;20033;-76
2022/05/02 04:46:43;;;;;;;6.82;5.13;;;14.30;79.60;;;;;;5028319;28;20033;-77
2022/05/02 04:49:08;;;;;;;6.93;5.13;;;14.30;79.50;;;;;;5029731;28;20029;-77
2022/05/02 04:51:34;;;;;;;7.57;5.32;;;14.30;79.50;;;;;;5012647;28;20505;-77
2022/05/02 04:53:59;;;;;;;7.88;5.40;;;14.30;79.50;;;;;;5016418;28;20037;-76
2022/05/02 04:56:25;;;;;;;7.05;5.38;;;14.30;79.50;;;;;;5022760;28;20072;-76
2022/05/02 04:58:51;;;;;;;8.43;5.85;;;14.30;79.40;;;;;;5012413;28;20029;-77
2022/05/02 05:01:16;;;;;;;7.22;5.55;;;14.20;79.40;;;;;;5028791;28;20025;-78
2022/05/02 05:03:42;;;;;;;8.27;5.75;;;14.30;79.50;;;;;;5016180;28;20782;-76
2022/05/02 05:06:07;;;;;;;7.95;5.65;;;14.30;79.30;;;;;;5026127;28;20041;-76
2022/05/02 05:08:33;;;;;;;8.02;6.00;;;14.40;79.30;;;;;;5025672;28;20399;-75
2022/05/02 05:11:16;;;;;;;8.73;5.80;;;14.40;79.20;;;;;;5012581;28;20143;-76
2022/05/02 05:17:31;;;;;;;7.32;5.30;;;14.40;79.20;;;;;;4995194;28;20076;-76
2022/05/02 05:20:36;;;;;;;7.40;5.13;;;14.40;79.00;;;;;;5016795;28;20072;-76
2022/05/02 05:23:15;;;;;;;7.38;5.50;;;14.50;78.90;;;;;;4994604;28;20045;-76
2022/05/02 05:26:08;;;;;;;7.90;5.10;;;14.50;78.80;;;;;;5010135;28;20037;-76
2022/05/02 05:28:40;;;;;;;8.70;5.88;;;14.50;78.80;;;;;;5021479;28;20021;-77
2022/05/02 05:31:29;;;;;;;7.95;5.82;;;14.50;78.80;;;;;;5047812;28;20029;-76
2022/05/02 05:34:06;;;;;;;7.28;5.00;;;14.40;78.90;;;;;;5049090;28;20756;-77
2022/05/02 05:36:53;;;;;;;7.50;5.70;;;14.40;78.90;;;;;;5048262;28;20040;-76
2022/05/02 05:39:36;;;;;;;7.70;5.50;;;14.40;79.00;;;;;;5008126;28;20033;-79
2022/05/02 05:42:16;;;;;;;7.35;5.65;;;14.40;79.10;;;;;;5023459;28;20398;-76
2022/05/02 05:45:05;;;;;;;7.53;5.88;;;14.40;79.10;;;;;;5028046;28;20029;-77
2022/05/02 05:47:36;;;;;;;8.05;5.88;;;14.40;79.10;;;;;;5028159;28;20427;-76
2022/05/02 05:50:21;;;;;;;7.38;5.63;;;14.40;79.10;;;;;;5014015;28;20032;-77
2022/05/02 05:53:20;;;;;;;8.05;6.05;;;14.40;79.00;;;;;;5010417;28;20060;-77
2022/05/02 05:56:02;;;;;;;8.18;5.88;;;14.40;78.90;;;;;;5028347;28;20034;-78
2022/05/02 05:58:46;;;;;;;6.97;5.40;;;14.40;78.90;;;;;;5011007;28;20044;-77
2022/05/02 06:01:15;;;;;;;6.88;5.35;;;14.40;78.90;;;;;;5010678;28;20030;-77
2022/05/02 06:04:04;;;;;;;7.90;5.95;;;14.40;78.80;;;;;;5027866;28;20168;-77
2022/05/02 06:06:30;;;;;;;7.93;5.93;;;14.40;78.80;;;;;;5010125;28;20026;-77
2022/05/02 06:09:00;;;;;;;7.88;5.85;;;14.40;78.80;;;;;;5010298;28;20022;-77
2022/05/02 06:11:27;;;;;;;7.10;5.25;;;14.40;78.80;;;;;;5010843;28;20056;-77
2022/05/02 06:13:54;;;;;;;7.85;6.10;;;14.40;78.80;;;;;;5011026;28;20030;-77
2022/05/02 06:19:26;;;;;;;7.78;5.60;;;14.40;78.80;;;;;;5030017;28;20180;-76
2022/05/02 06:21:54;;;;;;;7.78;5.65;;;14.40;78.80;;;;;;5019911;28;20119;-78
2022/05/02 06:24:19;;;;;;;7.90;5.95;;;14.40;78.70;;;;;;5017083;28;20537;-77
2022/05/02 06:26:49;;;;;;;8.32;5.85;;;14.30;78.60;;;;;;5028490;28;20033;-78
2022/05/02 06:29:18;;;;;;;7.65;5.57;;;14.40;78.60;;;;;;5019483;28;20462;-77
2022/05/02 06:31:46;;;;;;;7.88;5.65;;;14.40;78.60;;;;;;5024312;28;20763;-78
2022/05/02 06:34:14;;;;;;;7.72;5.90;;;14.50;78.60;;;;;;4999211;28;20117;-78
2022/05/02 06:37:07;;;;;;;7.80;5.63;;;14.50;78.50;;;;;;5011376;28;20399;-76
2022/05/02 06:39:50;;;;;;;7.93;5.70;;;14.50;78.40;;;;;;5028388;28;20103;-78
2022/05/02 06:42:28;;;;;;;8.25;5.82;;;14.60;78.30;;;;;;5028607;28;20482;-78
2022/05/02 06:45:33;;;;;;;7.85;5.57;;;14.60;78.20;;;;;;5027910;28;20068;-77
2022/05/02 06:48:16;;;;;;;7.95;5.90;;;14.60;78.10;;;;;;5029276;28;20042;-78
2022/05/02 06:50:46;;;;;;;8.48;5.85;;;14.50;78.00;;;;;;5011964;28;20044;-78
2022/05/02 06:53:32;;;;;;;8.15;5.97;;;14.50;78.00;;;;;;5030047;28;20075;-79
2022/05/02 06:56:16;;;;;;;8.52;6.00;;;14.50;78.10;;;;;;5028180;28;20083;-77
2022/05/02 06:59:01;;;;;;;9.75;5.50;;;14.50;78.20;;;;;;5028338;28;20555;-78
2022/05/02 07:01:47;;;;;;;8.60;6.15;;;14.50;78.20;;;;;;5011821;28;20040;-77
2022/05/02 07:04:24;;;;;;;8.48;6.40;;;14.50;78.20;;;;;;5029201;28;20199;-79
2022/05/02 07:07:05;;;;;;;9.13;5.97;;;14.50;78.20;;;;;;5028849;28;20033;-78
2022/05/02 07:10:01;;;;;;;9.93;6.30;;;14.50;78.20;;;;;;5029099;28;20049;-80
2022/05/02 07:12:29;;;;;;;9.18;6.57;;;14.50;78.70;;;;;;5028897;28;20068;-78
2022/05/02 07:15:08;;;;;;;10.25;6.30;;;14.40;78.10;;;;;;5022085;28;20498;-78
2022/05/02 07:17:42;;;;;;;9.07;6.03;;;14.50;78.10;;;;;;5029170;28;20088;-78
2022/05/02 07:20:18;;;;;;;9.65;6.70;;;14.50;78.00;;;;;;5011396;28;20021;-79
2022/05/02 07:22:55;;;;;;;9.73;6.10;;;14.50;78.00;;;;;;4999708;28;20029;-78
2022/05/02 07:25:22;;;;;;;8.05;6.25;;;14.50;77.70;;;;;;5028917;28;20032;-77
2022/05/02 07:28:23;;;;;;;10.50;6.60;;;14.50;77.60;;;;;;5029225;28;20475;-78
2022/05/02 07:30:50;;;;;;;9.40;6.03;;;14.50;77.40;;;;;;5006810;28;20084;-78
2022/05/02 07:33:18;;;;;;;9.43;6.20;;;14.50;77.30;;;;;;5009142;28;20022;-78
2022/05/02 07:35:45;;;;;;;10.15;6.10;;;14.50;77.40;;;;;;5008200;28;20030;-78
2022/05/02 07:38:13;;;;;;;11.00;6.45;;;14.50;77.50;;;;;;5011103;28;20104;-78
2022/05/02 07:41:22;;;;;;;12.25;6.50;;;14.50;77.50;;;;;;5027931;28;20064;-77
2022/05/02 07:43:34;;;;;;;9.75;6.60;;;14.50;77.00;;;;;;5025441;28;20132;-78
2022/05/02 07:46:02;;;;;;;11.98;6.10;;;14.50;77.20;;;;;;5026201;28;20029;-78
2022/05/02 07:48:31;;;;;;;10.65;6.78;;;14.50;77.10;;;;;;5019308;28;20033;-77
2022/05/02 07:50:58;;;;;;;9.20;6.43;;;14.60;77.20;;;;;;5021057;28;20039;-76
2022/05/02 07:53:26;;;;;;;20.52;7.57;;;14.60;77.00;;;;;;5029195;28;20030;-77
2022/05/02 07:55:54;;;;;;;36.17;7.85;;;14.70;76.90;;;;;;5035739;28;20491;-80
2022/05/02 07:58:24;;;;;;;62.42;10.35;;;14.70;77.00;;;;;;5020254;28;20037;-79
2022/05/02 08:00:49;;;;;;;58.33;9.93;;;14.70;75.70;;;;;;5037187;28;20049;-79
2022/05/02 08:03:17;;;;;;;57.58;8.75;;;14.80;75.70;;;;;;5038109;28;20025;-79
2022/05/02 08:05:46;;;;;;;43.10;9.13;;;14.80;76.20;;;;;;5037212;28;20030;-79
2022/05/02 08:08:17;;;;;;;46.67;9.35;;;14.80;76.40;;;;;;5037709;28;20025;-79
2022/05/02 08:10:48;;;;;;;45.75;9.13;;;14.80;76.40;;;;;;5020397;28;20089;-79
2022/05/02 08:13:38;;;;;;;44.88;9.20;;;14.80;76.40;;;;;;5020351;28;20445;-80
2022/05/02 08:16:34;;;;;;;40.42;9.27;;;14.90;76.50;;;;;;5038287;28;20078;-79
2022/05/02 08:19:14;;;;;;;40.75;9.60;;;14.90;76.80;;;;;;5020191;28;20033;-79
2022/05/02 08:21:48;;;;;;;32.83;8.03;;;15.00;76.70;;;;;;5020447;28;20025;-79
2022/05/02 08:27:43;;;;;;;43.00;9.35;;;15.10;77.30;;;;;;5038016;28;20048;-79
2022/05/02 08:30:20;;;;;;;28.52;8.10;;;15.20;77.40;;;;;;5019911;28;20029;-79
2022/05/02 08:32:59;;;;;;;26.35;8.20;;;15.20;77.60;;;;;;5019908;28;20017;-80
2022/05/02 08:35:50;;;;;;;35.75;8.65;;;15.30;77.50;;;;;;5037441;28;20057;-79
2022/05/02 08:38:54;;;;;;;32.38;8.18;;;15.40;78.20;;;;;;5020067;28;20135;-79
2022/05/02 08:41:28;;;;;;;37.00;8.35;;;15.50;78.90;;;;;;5038592;28;20025;-80
2022/05/02 08:44:36;;;;;;;24.63;8.48;;;15.60;79.60;;;;;;5019608;28;20394;-79
2022/05/02 08:47:20;;;;;;;28.48;7.40;;;15.90;80.60;;;;;;5038054;28;20053;-80
2022/05/02 08:49:58;;;;;;;23.70;7.05;;;16.00;83.20;;;;;;5036976;28;20025;-80
2022/05/02 08:52:57;;;;;;;26.67;8.02;;;16.20;83.50;;;;;;5019303;28;20021;-80
2022/05/02 08:55:51;;;;;;;24.42;6.63;;;16.30;84.10;;;;;;5019101;28;20026;-80
2022/05/02 08:58:32;;;;;;;29.83;7.95;;;16.40;85.40;;;;;;5037329;28;20438;-81
2022/05/02 09:01:35;;;;;;;21.27;7.32;;;16.40;85.30;;;;;;5037350;28;20033;-80
2022/05/02 09:04:09;;;;;;;21.48;7.18;;;16.50;85.50;;;;;;5018521;28;20081;-79
2022/05/02 09:06:57;;;;;;;20.02;6.78;;;16.70;86.20;;;;;;5019061;28;20482;-79
2022/05/02 09:09:43;;;;;;;17.80;6.72;;;16.80;86.60;;;;;;5019236;28;20032;-79
2022/05/02 09:12:21;;;;;;;21.73;7.07;;;16.80;86.60;;;;;;5037176;28;20502;-79
2022/05/02 09:15:11;;;;;;;18.90;6.30;;;16.90;86.40;;;;;;5018780;28;20033;-80
2022/05/02 09:17:39;;;;;;;;;;;17.00;86.30;;;;;;5019481;28;20026;-80
2022/05/02 09:20:22;;;;;;;21.17;6.80;;;17.10;86.40;;;;;;5037308;28;19954;-79
2022/05/02 09:23:06;;;;;;;19.10;6.13;;;17.10;85.50;;;;;;5019023;28;20467;-79
2022/05/02 09:25:38;;;;;;;19.05;6.53;;;17.20;85.70;;;;;;5017911;28;20119;-81
2022/05/02 09:28:22;;;;;;;;;;;17.10;86.40;;;;;;5037381;28;20026;-80
2022/05/02 09:31:14;;;;;;;20.20;6.90;;;17.10;87.20;;;;;;5018600;28;19905;-80
2022/05/02 09:33:49;;;;;;;22.20;6.55;;;17.20;87.00;;;;;;5018936;28;20021;-80
2022/05/02 09:36:30;;;;;;;16.55;6.32;;;17.20;87.50;;;;;;5036323;28;20052;-79
2022/05/02 09:39:14;;;;;;;19.38;5.95;;;17.20;87.20;;;;;;5036547;28;20022;-80
2022/05/02 09:42:18;;;;;;;16.88;6.22;;;17.30;86.40;;;;;;5018683;28;20442;-80
2022/05/02 09:50:47;;;;;;;16.33;6.53;;;17.30;87.10;;;;;;5036665;28;20624;-80
2022/05/02 09:53:37;;;;;;;18.05;6.47;;;17.30;86.00;;;;;;5036213;28;20021;-80
2022/05/02 09:59:06;;;;;;;14.90;6.18;;;17.40;86.20;;;;;;5035974;28;19954;-80
2022/05/02 10:01:33;;;;;;;16.25;6.47;;;17.40;85.50;;;;;;5017511;28;20033;-80
2022/05/02 10:04:01;;;;;;;14.93;5.50;;;17.40;85.30;;;;;;5035448;28;20025;-80
2022/05/02 10:06:53;;;;;;;14.70;5.50;;;17.40;85.40;;;;;;5017045;28;20036;-80
2022/05/02 10:09:53;;;;;;;15.13;5.85;;;17.50;84.80;;;;;;5017865;28;20026;-80
2022/05/02 10:12:40;;;;;;;16.20;5.47;;;17.50;84.50;;;;;;5034260;28;20116;-80
2022/05/02 10:15:17;;;;;;;13.23;5.65;;;17.40;84.30;;;;;;5017160;28;20426;-80
2022/05/02 10:18:13;;;;;;;11.05;5.20;;;17.30;84.50;;;;;;5035847;28;20380;-80
2022/05/02 10:21:06;;;;;;;16.75;5.32;;;17.30;84.40;;;;;;5017870;28;20090;-79
2022/05/02 10:24:02;;;;;;;14.10;5.00;;;17.20;84.50;;;;;;5035939;28;20104;-80
2022/05/02 10:26:36;;;;;;;15.60;5.47;;;17.20;84.30;;;;;;5035312;28;20512;-80
2022/05/02 10:29:20;;;;;;;12.38;4.97;;;17.00;84.40;;;;;;5018039;28;20029;-80
2022/05/02 10:31:50;;;;;;;13.48;5.57;;;17.00;84.70;;;;;;5017678;28;20029;-81
2022/05/02 10:34:21;;;;;;;10.40;4.80;;;16.90;84.60;;;;;;5035398;28;20092;-81
2022/05/02 10:36:50;;;;;;;14.70;5.25;;;17.00;84.30;;;;;;5016974;28;20022;-81
2022/05/02 10:39:27;;;;;;;15.88;5.00;;;16.90;84.20;;;;;;5017579;28;20571;-80
2022/05/02 10:41:58;;;;;;;12.23;5.22;;;16.90;84.20;;;;;;5017433;28;20021;-80
2022/05/02 10:44:28;;;;;;;13.48;5.57;;;16.90;84.30;;;;;;5017389;28;20079;-79
2022/05/02 10:47:01;;;;;;;13.85;5.15;;;16.90;84.20;;;;;;5016951;28;20425;-80
2022/05/02 10:49:54;;;;;;;13.95;4.72;;;16.80;84.00;;;;;;5034904;28;20183;-80
2022/05/02 10:52:47;;;;;;;12.93;5.18;;;16.80;84.00;;;;;;5017153;28;20032;-80
2022/05/02 10:55:20;;;;;;;15.00;5.43;;;16.80;83.80;;;;;;5033884;28;20493;-80
2022/05/02 10:58:01;;;;;;;13.13;5.18;;;16.70;83.80;;;;;;5017110;28;20029;-80
2022/05/02 11:00:28;;;;;;;11.45;5.50;;;16.70;83.80;;;;;;5034909;28;20152;-80
2022/05/02 11:03:23;;;;;;;11.30;4.90;;;16.70;83.80;;;;;;5016857;28;20030;-80
2022/05/02 11:06:07;;;;;;;11.07;4.82;;;16.70;84.30;;;;;;5016784;28;20433;-80
2022/05/02 11:08:57;;;;;;;12.02;4.65;;;16.60;83.80;;;;;;5034894;28;20018;-80
2022/05/02 11:11:49;;;;;;;11.80;4.55;;;16.60;83.70;;;;;;5017077;28;20067;-80
2022/05/02 11:14:50;;;;;;;10.30;4.93;;;16.60;83.60;;;;;;5034607;28;20391;-80
2022/05/02 11:17:37;;;;;;;9.45;4.68;;;16.60;83.40;;;;;;5034330;28;20048;-80
2022/05/02 11:23:19;;;;;;;9.85;4.28;;;16.60;82.80;;;;;;5034628;28;20072;-80
2022/05/02 11:26:11;;;;;;;11.57;5.35;;;16.70;82.60;;;;;;5014521;28;20479;-79
2022/05/02 11:28:43;;;;;;;12.05;4.60;;;16.70;82.30;;;;;;5013431;28;20033;-80
2022/05/02 11:31:33;;;;;;;10.30;4.93;;;16.60;82.10;;;;;;5013079;28;20030;-80
2022/05/02 11:34:19;;;;;;;12.57;5.05;;;16.60;82.10;;;;;;4997534;28;20491;-80
2022/05/02 11:36:51;;;;;;;11.43;4.97;;;16.60;82.20;;;;;;5013170;28;20045;-80
2022/05/02 11:39:24;;;;;;;10.32;4.75;;;16.60;82.20;;;;;;5014978;28;20026;-80
2022/05/02 11:41:53;;;;;;;10.32;4.63;;;16.50;82.30;;;;;;4997321;28;20026;-80
2022/05/02 11:44:30;;;;;;;10.68;4.25;;;16.60;82.30;;;;;;5014643;28;20171;-80
2022/05/02 11:47:07;;;;;;;9.32;4.60;;;16.50;82.20;;;;;;4997095;28;20026;-80
2022/05/02 11:50:05;;;;;;;11.48;4.45;;;16.50;82.20;;;;;;5014829;28;20045;-80
2022/05/02 11:52:36;;;;;;;9.18;4.78;;;16.50;81.90;;;;;;5014709;28;20025;-79
2022/05/02 11:55:04;;;;;;;14.18;4.63;;;16.50;82.10;;;;;;5014306;28;20026;-80
2022/05/02 11:57:38;;;;;;;9.73;4.53;;;16.40;82.00;;;;;;4996258;28;20116;-80
2022/05/02 12:00:14;;;;;;;10.75;4.15;;;16.40;82.20;;;;;;4996778;28;20030;-80
2022/05/02 12:02:52;;;;;;;9.93;4.55;;;16.40;82.10;;;;;;5014434;28;20495;-80
2022/05/02 12:05:33;;;;;;;8.77;4.15;;;16.40;82.10;;;;;;4996459;28;20030;-80
2022/05/02 12:08:04;;;;;;;7.80;3.75;;;16.40;82.00;;;;;;5014218;28;20026;-80
2022/05/02 12:10:47;;;;;;;12.32;4.53;;;16.40;82.10;;;;;;4997005;28;20124;-79
2022/05/02 12:13:15;;;;;;;17.13;5.35;;;16.30;81.90;;;;;;5027580;28;20026;-80
2022/05/02 12:16:09;;;;;;;16.88;5.43;;;16.30;81.90;;;;;;5015931;28;20611;-80
2022/05/02 12:18:52;;;;;;;10.43;4.70;;;16.30;81.90;;;;;;5009823;28;20053;-79
2022/05/02 12:21:32;;;;;;;10.75;4.38;;;16.30;81.80;;;;;;4998739;28;20017;-79
2022/05/02 12:24:00;;;;;;;13.90;4.70;;;16.30;81.80;;;;;;5017015;28;20033;-81
2022/05/02 12:26:26;;;;;;;14.07;5.10;;;16.30;81.60;;;;;;5015880;28;20037;-80
2022/05/02 12:28:58;;;;;;;11.75;4.10;;;16.40;81.70;;;;;;5015782;28;20026;-80
2022/05/02 12:31:28;;;;;;;;;;;16.30;81.50;;;;;;5016988;28;20025;-79
2022/05/02 12:34:02;;;;;;;11.10;4.20;;;16.30;81.30;;;;;;5011665;28;19909;-80
2022/05/02 12:36:52;;;;;;;13.13;4.55;;;16.40;81.40;;;;;;5032857;28;20021;-80
2022/05/02 12:39:24;;;;;;;13.45;4.68;;;16.40;81.30;;;;;;4997741;28;20436;-80
2022/05/02 12:41:54;;;;;;;9.77;4.25;;;16.30;81.50;;;;;;5002527;28;20033;-80
2022/05/02 12:44:25;;;;;;;11.65;4.72;;;16.20;81.70;;;;;;5024548;28;20550;-80
2022/05/02 12:46:54;;;;;;;13.40;4.20;;;16.10;81.80;;;;;;5015348;28;20402;-79
2022/05/02 12:49:31;;;;;;;10.43;4.65;;;16.20;82.00;;;;;;5013236;28;20034;-79
2022/05/02 12:51:57;;;;;;;13.48;4.70;;;16.10;82.10;;;;;;5014361;28;20017;-80
2022/05/02 12:54:26;;;;;;;13.20;4.65;;;16.10;82.20;;;;;;5015895;28;20052;-80
2022/05/02 13:02:43;;;;;;;11.85;4.85;;;16.00;82.40;;;;;;5034229;28;20064;-79
2022/05/02 13:05:13;;;;;;;9.48;4.45;;;16.00;82.40;;;;;;5016076;28;20040;-79
2022/05/02 13:07:53;;;;;;;10.82;4.65;;;16.00;82.40;;;;;;5016216;28;20021;-80
2022/05/02 13:10:22;;;;;;;9.02;4.28;;;16.00;82.50;;;;;;5016464;28;20083;-80
2022/05/02 13:12:56;;;;;;;9.48;4.15;;;16.00;82.40;;;;;;5014193;28;20590;-80
2022/05/02 13:15:24;;;;;;;9.65;3.78;;;16.00;82.50;;;;;;5027396;28;20033;-81
2022/05/02 13:17:51;;;;;;;9.27;3.70;;;15.90;82.50;;;;;;5014155;28;20041;-79
2022/05/02 13:20:17;;;;;;;10.32;4.00;;;16.00;82.50;;;;;;5024378;28;20060;-79
2022/05/02 13:23:03;;;;;;;9.95;4.63;;;16.00;82.60;;;;;;5014522;28;20029;-78
2022/05/02 13:25:54;;;;;;;11.55;3.95;;;16.00;82.50;;;;;;5026164;28;20043;-81
2022/05/02 13:29:07;;;;;;;9.23;4.07;;;16.00;82.50;;;;;;5011388;28;20483;-80
2022/05/02 13:31:32;;;;;;;9.63;4.13;;;16.00;82.40;;;;;;5034117;28;20025;-79
2022/05/02 13:34:02;;;;;;;11.07;4.53;;;16.00;82.40;;;;;;5035276;28;20113;-80
2022/05/02 13:36:39;;;;;;;16.42;6.05;;;15.90;82.00;;;;;;5018386;28;20068;-80
2022/05/02 13:39:18;;;;;;;17.50;6.18;;;15.80;76.00;;;;;;5037126;28;20056;-80
2022/05/02 13:41:49;;;;;;;10.75;5.72;;;15.70;74.20;;;;;;5018561;28;20075;-80
2022/05/02 13:44:27;;;;;;;12.57;6.17;;;15.70;74.10;;;;;;5018590;28;20025;-80
2022/05/02 13:47:09;;;;;;;11.75;5.75;;;15.60;74.10;;;;;;5035974;28;20391;-80
2022/05/02 13:50:23;;;;;;;9.70;5.85;;;15.60;73.90;;;;;;5035907;28;20108;-80
2022/05/02 13:52:57;;;;;;;11.80;6.35;;;15.60;74.10;;;;;;5035782;28;20026;-80